createdAt,value
2019-01-16T00:00:51.577Z,7.67
2019-01-16T00:05:45.225Z,5.30
2019-01-16T00:10:56.984Z,7.57
2019-01-16T00:15:50.884Z,6.43
2019-01-16T00:20:47.278Z,8.50
2019-01-16T00:25:41.294Z,9.07
2019-01-16T00:30:35.513Z,6.53
2019-01-16T00:35:45.153Z,6.97
2019-01-16T00:40:55.437Z,6.77
2019-01-16T00:46:05.501Z,6.80
2019-01-16T00:51:02.446Z,7.57
2019-01-16T00:56:04.872Z,6.20
2019-01-16T01:00:58.704Z,5.30
2019-01-16T01:06:07.265Z,5.83
2019-01-16T01:11:01.016Z,5.30
2019-01-16T01:15:55.053Z,7.03
2019-01-16T01:20:48.812Z,5.67
2019-01-16T01:25:48.498Z,6.73
2019-01-16T01:30:48.046Z,8.47
2019-01-16T01:36:00.033Z,6.77
2019-01-16T01:41:05.716Z,6.20
2019-01-16T01:46:02.241Z,7.37
2019-01-16T01:50:56.199Z,5.90
2019-01-16T01:56:04.885Z,4.87
2019-01-16T02:01:04.448Z,7.00
2019-01-16T02:06:07.177Z,6.47
2019-01-16T02:11:06.808Z,4.63
2019-01-16T02:16:06.513Z,5.00
2019-01-16T02:21:06.362Z,4.73
2019-01-16T02:26:15.303Z,4.53
2019-01-16T02:31:12.072Z,3.93
2019-01-16T02:36:11.971Z,4.20
2019-01-16T02:41:21.785Z,4.07
2019-01-16T02:46:18.568Z,4.63
2019-01-16T02:51:21.213Z,3.90
2019-01-16T02:56:21.109Z,3.73
2019-01-16T03:01:15.165Z,4.77
2019-01-16T03:06:11.837Z,3.90
2019-01-16T03:11:05.518Z,4.00
2019-01-16T03:15:59.509Z,4.47
2019-01-16T03:20:59.238Z,3.63
2019-01-16T03:25:56.141Z,4.63
2019-01-16T03:31:06.492Z,4.40
2019-01-16T03:36:00.196Z,4.10
2019-01-16T03:40:57.065Z,5.57
2019-01-16T03:45:53.729Z,4.37
2019-01-16T03:50:47.789Z,4.13
2019-01-16T03:55:41.347Z,4.83
2019-01-16T04:00:43.817Z,5.53
2019-01-16T04:05:46.398Z,5.83
2019-01-16T04:10:56.240Z,4.63
2019-01-16T04:15:50.549Z,4.30
2019-01-16T04:20:56.728Z,4.90
2019-01-16T04:25:50.258Z,5.30
2019-01-16T04:30:49.782Z,7.27
2019-01-16T04:35:43.707Z,5.43
2019-01-16T04:40:43.120Z,5.50
2019-01-16T04:45:49.088Z,6.80
2019-01-16T04:51:00.861Z,6.10
2019-01-16T04:55:54.595Z,5.50
2019-01-16T05:00:50.888Z,7.10
2019-01-16T05:05:47.568Z,6.10
2019-01-16T05:10:53.069Z,5.40
2019-01-16T05:15:55.785Z,5.17
2019-01-16T05:21:04.833Z,5.40
2019-01-16T05:26:01.712Z,6.10
2019-01-16T05:30:57.989Z,6.13
2019-01-16T05:35:51.668Z,5.93
2019-01-16T05:41:00.354Z,6.60
2019-01-16T05:46:06.413Z,5.60
2019-01-16T05:51:03.225Z,14.60
2019-01-16T05:56:08.990Z,12.50
2019-01-16T06:01:14.823Z,9.60
2019-01-16T06:06:26.825Z,13.60
2019-01-16T06:11:23.482Z,7.90
2019-01-16T06:16:17.240Z,6.80
2019-01-16T06:21:27.077Z,6.60
2019-01-16T06:26:30.376Z,6.23
2019-01-16T06:31:27.235Z,6.83
2019-01-16T06:36:26.646Z,4.87
2019-01-16T06:41:37.975Z,5.30
2019-01-16T06:46:40.926Z,5.17
2019-01-16T06:51:35.013Z,4.67
2019-01-16T06:56:34.394Z,5.07
2019-01-16T07:01:28.113Z,5.33
2019-01-16T07:06:21.977Z,7.00
2019-01-16T07:11:15.711Z,4.97
2019-01-16T07:16:18.072Z,7.30
2019-01-16T07:21:14.708Z,5.93
2019-01-16T07:26:08.526Z,7.00
2019-01-16T07:31:02.324Z,5.17
2019-01-16T07:35:56.284Z,4.73
2019-01-16T07:41:05.520Z,5.10
2019-01-16T07:46:11.244Z,5.73
2019-01-16T07:51:16.973Z,4.60
2019-01-16T07:56:13.190Z,4.90
2019-01-16T08:01:12.944Z,4.37
2019-01-16T08:06:23.048Z,4.60
2019-01-16T08:11:19.803Z,4.20
2019-01-16T08:16:20.905Z,4.40
2019-01-16T08:21:15.168Z,4.47
2019-01-16T08:26:20.554Z,4.33
2019-01-16T08:31:14.783Z,4.00
2019-01-16T08:36:24.601Z,4.03
2019-01-16T08:41:18.677Z,3.53
2019-01-16T08:46:12.473Z,3.57
2019-01-16T08:51:22.504Z,3.47
2019-01-16T08:56:31.572Z,3.83
2019-01-16T09:01:43.380Z,4.90
2019-01-16T09:06:49.214Z,4.43
2019-01-16T09:11:46.247Z,4.67
2019-01-16T09:16:42.941Z,4.97
2019-01-16T09:21:36.997Z,4.80
2019-01-16T09:26:46.772Z,5.10
2019-01-16T09:31:55.845Z,8.63
2019-01-16T09:36:49.913Z,9.57
2019-01-16T09:41:46.470Z,5.50
2019-01-16T09:46:43.090Z,4.70
2019-01-16T09:51:39.981Z,6.03
2019-01-16T09:56:42.661Z,15.07
2019-01-16T10:01:36.613Z,5.40
2019-01-16T10:06:30.473Z,5.57
2019-01-16T10:11:32.744Z,4.70
2019-01-16T10:16:42.417Z,8.63
2019-01-16T10:21:42.046Z,10.27
2019-01-16T10:26:51.869Z,10.90
2019-01-16T10:31:57.414Z,7.10
2019-01-16T10:37:09.048Z,7.60
2019-01-16T10:42:05.402Z,6.08
2019-01-16T10:47:11.369Z,5.30
2019-01-16T10:52:11.309Z,5.35
2019-01-16T10:57:05.301Z,4.97
2019-01-16T11:01:59.112Z,4.90
2019-01-16T11:06:55.337Z,5.22
2019-01-16T11:11:54.945Z,5.42
2019-01-16T11:17:04.967Z,5.95
2019-01-16T11:22:05.058Z,5.60
2019-01-16T11:27:16.640Z,6.85
2019-01-16T11:32:16.352Z,7.97
2019-01-16T11:37:10.307Z,8.05
2019-01-16T11:42:04.190Z,8.65
2019-01-16T11:47:00.734Z,10.50
2019-01-16T11:51:57.148Z,9.25
2019-01-16T11:56:50.877Z,11.00
2019-01-16T12:01:47.278Z,10.82
2019-01-16T12:06:41.102Z,10.72
2019-01-16T12:11:35.118Z,8.25
2019-01-16T12:16:29.076Z,11.25
2019-01-16T12:21:37.653Z,7.50
2019-01-16T12:26:34.205Z,6.33
2019-01-16T12:31:30.710Z,9.95
2019-01-16T12:36:36.429Z,7.28
2019-01-16T12:41:42.115Z,8.08
2019-01-16T12:46:41.603Z,7.75
2019-01-16T12:51:38.520Z,7.60
2019-01-16T12:56:40.937Z,9.18
2019-01-16T13:01:40.624Z,8.10
2019-01-16T13:06:34.285Z,9.55
2019-01-16T13:11:40.122Z,7.83
2019-01-16T13:16:45.875Z,7.85
2019-01-16T13:21:40.115Z,7.35
2019-01-16T13:26:50.185Z,7.55
2019-01-16T13:31:43.894Z,7.75
2019-01-16T13:36:40.286Z,7.25
2019-01-16T13:41:51.650Z,7.37
2019-01-16T13:46:47.987Z,6.85
2019-01-16T13:51:50.213Z,7.25
2019-01-16T13:56:49.713Z,9.78
2019-01-16T14:02:01.536Z,8.20
2019-01-16T14:07:04.357Z,8.33
2019-01-16T14:12:10.005Z,28.67
2019-01-16T14:17:04.097Z,11.00
2019-01-16T14:22:07.053Z,8.25
2019-01-16T14:27:00.924Z,8.40
2019-01-16T14:31:57.381Z,8.90
2019-01-16T14:37:00.437Z,8.78
2019-01-16T14:42:10.344Z,8.28
2019-01-16T14:47:04.244Z,10.60
2019-01-16T14:52:01.085Z,9.47
2019-01-16T14:57:13.057Z,8.90
2019-01-16T15:02:23.402Z,8.40
2019-01-16T15:07:33.420Z,10.00
2019-01-16T15:12:45.150Z,10.47
2019-01-16T15:17:48.164Z,10.43
2019-01-16T15:22:42.344Z,13.77
2019-01-16T15:27:35.813Z,11.10
2019-01-16T15:32:45.507Z,12.67
2019-01-16T15:37:39.290Z,10.17
2019-01-16T15:42:48.679Z,11.27
2019-01-16T15:47:48.260Z,11.17
2019-01-16T15:52:42.044Z,10.00
2019-01-16T15:57:50.919Z,10.27
2019-01-16T16:02:46.841Z,13.67
2019-01-16T16:07:40.387Z,11.90
2019-01-16T16:12:34.369Z,11.70
2019-01-16T16:17:40.002Z,11.33
2019-01-16T16:22:33.811Z,9.97
2019-01-16T16:27:27.573Z,11.37
2019-01-16T16:32:37.106Z,36.70
2019-01-16T16:37:43.181Z,11.13
2019-01-16T16:42:42.877Z,11.27
2019-01-16T16:47:36.630Z,11.87
2019-01-16T16:52:35.923Z,11.37
2019-01-16T16:57:29.975Z,11.57
2019-01-16T17:02:29.674Z,11.80
2019-01-16T17:07:29.639Z,12.40
2019-01-16T17:12:38.351Z,12.50
2019-01-16T17:17:41.645Z,12.33
2019-01-16T17:22:38.357Z,12.70
2019-01-16T17:27:32.326Z,12.87
2019-01-16T17:32:32.459Z,12.17
2019-01-16T17:37:42.366Z,11.63
2019-01-16T17:42:53.884Z,12.10
2019-01-16T17:48:02.700Z,12.00
2019-01-16T17:52:59.594Z,13.20
2019-01-16T17:57:56.548Z,13.30
2019-01-16T18:02:56.279Z,12.73
2019-01-16T18:07:50.000Z,12.73
2019-01-16T18:12:46.765Z,11.60
2019-01-16T18:17:43.649Z,11.80
2019-01-16T18:22:37.664Z,12.13
2019-01-16T18:27:47.649Z,12.00
2019-01-16T18:32:47.792Z,11.87
2019-01-16T18:37:49.856Z,12.53
2019-01-16T18:42:43.542Z,13.43
2019-01-16T18:47:53.397Z,13.50
2019-01-16T18:52:51.867Z,11.27
2019-01-16T18:57:48.118Z,11.87
2019-01-16T19:02:50.842Z,10.83
2019-01-16T19:08:02.725Z,12.30
2019-01-16T19:12:56.855Z,12.93
2019-01-16T19:17:53.511Z,11.80
2019-01-16T19:22:58.079Z,11.77
2019-01-16T19:27:51.464Z,10.73
2019-01-16T19:32:47.777Z,12.97
2019-01-16T19:37:44.238Z,13.23
2019-01-16T19:42:46.851Z,13.03
2019-01-16T19:47:40.677Z,10.30
2019-01-16T19:52:40.217Z,10.77
2019-01-16T19:57:48.812Z,10.17
2019-01-16T20:02:58.683Z,12.57
2019-01-16T20:07:55.529Z,11.10
2019-01-16T20:12:58.314Z,10.37
2019-01-16T20:17:52.061Z,11.50
2019-01-16T20:22:49.205Z,9.50
2019-01-16T20:27:42.796Z,11.53
2019-01-16T20:32:36.306Z,10.83
2019-01-16T20:37:42.138Z,9.97
2019-01-16T20:42:35.794Z,8.77
2019-01-16T20:47:29.861Z,8.13
2019-01-16T20:52:35.821Z,7.53
2019-01-16T20:57:35.862Z,7.30
2019-01-16T21:02:29.681Z,7.57
2019-01-16T21:07:26.256Z,8.00
2019-01-16T21:12:20.205Z,7.90
2019-01-16T21:17:30.305Z,7.13
2019-01-16T21:22:42.377Z,8.17
2019-01-16T21:27:33.927Z,7.97
2019-01-16T21:32:27.937Z,8.40
2019-01-16T21:37:27.279Z,8.73
2019-01-16T21:42:33.045Z,8.10
2019-01-16T21:47:36.564Z,11.30
2019-01-16T21:52:42.364Z,12.43
2019-01-16T21:57:44.589Z,14.03
2019-01-16T22:02:44.306Z,11.60
2019-01-16T22:07:40.964Z,8.63
2019-01-16T22:12:50.844Z,9.60
2019-01-16T22:17:47.702Z,7.87
2019-01-16T22:22:47.272Z,10.50
2019-01-16T22:27:53.164Z,8.03
2019-01-16T22:32:55.665Z,13.80
2019-01-16T22:38:04.025Z,11.37
2019-01-16T22:42:58.024Z,9.67
2019-01-16T22:48:00.182Z,17.90
2019-01-16T22:53:09.901Z,10.70
2019-01-16T22:58:03.996Z,9.30
2019-01-16T23:03:00.805Z,8.73
2019-01-16T23:08:06.598Z,6.83
2019-01-16T23:13:09.377Z,6.53
2019-01-16T23:18:12.302Z,6.90
2019-01-16T23:23:18.336Z,6.90
2019-01-16T23:28:17.801Z,9.33
2019-01-16T23:33:14.307Z,7.20
2019-01-16T23:38:23.934Z,7.13
2019-01-16T23:43:23.885Z,5.40
2019-01-16T23:48:23.440Z,6.70
2019-01-16T23:53:17.409Z,7.30
2019-01-16T23:58:11.261Z,8.33
